^^
Station Historical Data
Daily Summary for June 16, 2017 Units:  English    Metric   Both
« Previous Day
Next Day »
Daily Weekly Monthly Yearly Custom
  High: Low: Average:
Temperature: 68.4 °F 58.8 °F 63 °F
Dew Point: 62.7 °F 54.3 °F 59.9 °F
Humidity: 97% 77% 90%
Wind Speed: 2.0mph 0.0mph 0.5mph
Wind Gust: 8.0mph - -
Wind- - West
Pressure: 30.05 in 29.93 in -
Precipitation: 0.45 in    
Historical Graphs
 
 
Tabular Data for June 16, 2017
Time Temperature Dew Point Pressure Wind Wind Speed Wind Gust Humidity Rainfall Rate (Hourly) Conditions
00:00 60.5 °F 54.3 °F 30.04 in Calm   4.0 mph 80% 0.00 in CLR
00:15 60.3 °F 54.4 °F 30.05 in Calm   3.0 mph 81% 0.00 in CLR
00:30 60.1 °F 54.9 °F 30.05 in Calm   2.0 mph 83% 0.00 in CLR
00:45 59.8 °F 55.0 °F 30.05 in Calm   1.0 mph 84% 0.00 in CLR
01:00 59.5 °F 55.3 °F 30.05 in Calm     86% 0.00 in CLR
01:15 59.4 °F 55.2 °F 30.05 in Calm   1.0 mph 86% 0.00 in CLR
01:30 59.3 °F 55.4 °F 30.04 in Calm   2.0 mph 87% 0.00 in CLR
01:45 59.3 °F 55.7 °F 30.03 in Calm   3.0 mph 88% 0.00 in CLR
02:00 59.2 °F 56.0 °F 30.02 in Calm   2.0 mph 89% 0.00 in CLR
02:15 59.2 °F 56.0 °F 30.02 in Calm   4.0 mph 89% 0.00 in FEW
02:30 59.3 °F 56.4 °F 30.01 in Calm   4.0 mph 90% 0.00 in FEW
02:45 59.4 °F 56.5 °F 30.01 in Calm   3.0 mph 90% 0.00 in FEW
03:00 59.4 °F 56.8 °F 30.01 in Calm   4.0 mph 91% 0.00 in FEW
03:15 59.3 °F 56.7 °F 30.01 in NNW 1.0 mph 3.0 mph 91% 0.00 in SCT
03:30 59.1 °F 56.8 °F 30.02 in Calm   2.0 mph 92% 0.00 in SCT
03:45 59.0 °F 56.7 °F 30.02 in Calm   1.0 mph 92% 0.00 in SCT
04:00 58.9 °F 56.9 °F 30.01 in Calm   3.0 mph 93% 0.00 in SCT
04:15 58.8 °F 56.8 °F 30.00 in Calm   2.0 mph 93% 0.00 in SCT
04:30 59.0 °F 57.0 °F 30.00 in Calm   3.0 mph 93% 0.00 in SCT
04:45 59.2 °F 57.2 °F 30.01 in Calm   3.0 mph 93% 0.00 in SCT
05:00 59.3 °F 57.3 °F 30.00 in Calm   3.0 mph 93% 0.00 in SCT
05:15 59.4 °F 57.4 °F 30.00 in Calm   3.0 mph 93% 0.00 in BKN
05:30 59.5 °F 57.5 °F 30.01 in Calm   3.0 mph 93% 0.00 in BKN
05:45 59.7 °F 57.7 °F 30.01 in NW 1.0 mph 3.0 mph 93% 0.00 in BKN
06:00 60.1 °F 58.1 °F 30.01 in NE 2.0 mph 5.0 mph 93% 0.00 in BKN
06:15 60.4 °F 58.1 °F 30.01 in West 1.0 mph 3.0 mph 92% 0.00 in BKN
06:30 60.8 °F 58.5 °F 30.01 in NW 1.0 mph 5.0 mph 92% 0.00 in BKN
06:45 61.1 °F 58.5 °F 30.01 in NNW 1.0 mph 5.0 mph 91% 0.00 in BKN
07:00 61.3 °F 58.7 °F 30.01 in Calm   5.0 mph 91% 0.00 in BKN
07:15 61.8 °F 58.8 °F 30.02 in Calm   7.0 mph 90% 0.00 in BKN
07:30 62.4 °F 59.1 °F 30.01 in SSW 2.0 mph 7.0 mph 89% 0.00 in BKN
07:45 63.0 °F 59.1 °F 30.01 in NNW 2.0 mph 6.0 mph 87% 0.00 in BKN
08:00 63.6 °F 59.3 °F 30.01 in North 2.0 mph 6.0 mph 86% 0.00 in BKN
08:15 63.7 °F 59.4 °F 30.01 in WSW 1.0 mph 7.0 mph 86% 0.00 in BKN
08:30 64.1 °F 59.5 °F 30.01 in East 1.0 mph 6.0 mph 85% 0.00 in BKN
08:45 64.6 °F 59.7 °F 30.00 in NNW 1.0 mph 5.0 mph 84% 0.00 in BKN
09:00 64.7 °F 59.8 °F 30.01 in SW 2.0 mph 7.0 mph 84% 0.00 in BKN
09:15 65.4 °F 60.1 °F 30.00 in WSW 1.0 mph 7.0 mph 83% 0.00 in BKN
09:30 65.9 °F 60.2 °F 30.00 in West 1.0 mph 8.0 mph 82% 0.00 in BKN
09:45 66.6 °F 60.6 °F 29.99 in North 2.0 mph 7.0 mph 81% 0.00 in BKN
10:00 68.4 °F 61.7 °F 29.99 in WNW 1.0 mph 6.0 mph 79% 0.00 in BKN
10:15 68.3 °F 60.8 °F 29.99 in SE 2.0 mph 8.0 mph 77% 0.00 in BKN
10:30 67.1 °F 60.7 °F 29.99 in SSW 1.0 mph 6.0 mph 80% 0.00 in BKN
10:45 66.4 °F 60.7 °F 29.99 in SW 2.0 mph 5.0 mph 82% 0.00 in BKN
11:00 66.7 °F 61.4 °F 29.99 in NW 2.0 mph 5.0 mph 83% 0.00 in BKN
11:15 67.0 °F 61.7 °F 29.99 in WNW 1.0 mph 6.0 mph 83% 0.00 in -RA
11:30 67.6 °F 61.9 °F 29.98 in NW 1.0 mph 6.0 mph 82% 0.00 in -RA
11:45 67.2 °F 61.5 °F 29.98 in WNW 2.0 mph 8.0 mph 82% 0.00 in -RA
12:00 66.6 °F 61.6 °F 29.98 in Calm   6.0 mph 84% 0.00 in -RA
12:15 66.4 °F 61.4 °F 29.98 in WSW 1.0 mph 5.0 mph 84% 0.00 in -DZ
12:30 65.8 °F 61.1 °F 29.98 in West 1.0 mph 3.0 mph 85% 0.00 in -DZ
12:45 65.5 °F 61.2 °F 29.98 in Calm   4.0 mph 86% 0.00 in -DZ
13:00 65.2 °F 61.2 °F 29.98 in Calm   5.0 mph 87% 0.00 in -DZ
13:15 65.2 °F 61.2 °F 29.98 in Calm   5.0 mph 87% 0.00 in -DZ
13:30 65.2 °F 61.2 °F 29.97 in WNW 1.0 mph 4.0 mph 87% 0.00 in -DZ
13:45 65.0 °F 61.4 °F 29.97 in Calm   5.0 mph 88% 0.00 in -DZ
14:00 64.8 °F 61.1 °F 29.97 in NNW 1.0 mph 5.0 mph 88% 0.00 in -DZ
14:15 64.8 °F 61.5 °F 29.97 in SSW 2.0 mph 4.0 mph 89% 0.00 in -DZ
14:30 64.6 °F 61.3 °F 29.97 in Calm   6.0 mph 89% 0.00 in -DZ
14:45 64.7 °F 61.4 °F 29.97 in WNW 1.0 mph 3.0 mph 89% 0.00 in -DZ
15:00 64.5 °F 61.5 °F 29.96 in NNW 1.0 mph 3.0 mph 90% 0.00 in -DZ
15:15 64.8 °F 61.8 °F 29.96 in Calm   4.0 mph 90% 0.00 in -DZ
15:30 64.3 °F 61.6 °F 29.96 in Calm   3.0 mph 91% 0.00 in -DZ
15:45 64.4 °F 61.7 °F 29.95 in Calm   3.0 mph 91% 0.00 in -DZ
16:00 64.2 °F 61.5 °F 29.95 in West 1.0 mph 4.0 mph 91% 0.00 in -DZ
16:15 64.1 °F 61.4 °F 29.95 in NNW 1.0 mph 4.0 mph 91% 0.00 in -DZ
16:30 63.8 °F 61.4 °F 29.94 in Calm   5.0 mph 92% 0.00 in -DZ
16:45 63.9 °F 61.5 °F 29.94 in NW 1.0 mph 4.0 mph 92% 0.00 in -DZ
17:00 64.2 °F 61.5 °F 29.94 in Calm   3.0 mph 91% 0.00 in -DZ
17:15 63.9 °F 61.5 °F 29.93 in Calm   3.0 mph 92% 0.00 in CLR
17:30 63.7 °F 61.6 °F 29.94 in Calm   2.0 mph 93% 0.01 in RA
17:45 63.5 °F 61.7 °F 29.94 in Calm   3.0 mph 94% 0.14 in RA
18:00 63.1 °F 61.4 °F 29.94 in NW 2.0 mph 3.0 mph 94% 0.10 in RA
18:15 63.1 °F 61.6 °F 29.94 in Calm   2.0 mph 95% 0.14 in -RA
18:30 63.2 °F 61.7 °F 29.95 in Calm   1.0 mph 95% 0.03 in -RA
18:45 63.4 °F 62.2 °F 29.95 in Calm   1.0 mph 96% 0.01 in -RA
19:00 63.4 °F 62.2 °F 29.95 in Calm   2.0 mph 96% 0.00 in -RA
19:15 63.5 °F 62.3 °F 29.95 in Calm   1.0 mph 96% 0.01 in -RA
19:30 63.7 °F 62.5 °F 29.95 in Calm   3.0 mph 96% 0.01 in -RA
19:45 63.8 °F 62.7 °F 29.95 in Calm   1.0 mph 96% 0.00 in -RA
20:00 63.5 °F 62.4 °F 29.95 in Calm   1.0 mph 96% 0.00 in -RA
20:15 63.3 °F 62.1 °F 29.95 in Calm   3.0 mph 96% 0.00 in -RA
20:30 63.4 °F 62.2 °F 29.95 in Calm   1.0 mph 96% 0.00 in -RA
20:45 63.3 °F 62.1 °F 29.95 in Calm   1.0 mph 96% 0.00 in -RA
21:00 63.1 °F 61.9 °F 29.94 in Calm   1.0 mph 96% 0.00 in -RA
21:15 63.0 °F 61.8 °F 29.94 in Calm   1.0 mph 96% 0.00 in BKN
21:30 63.0 °F 61.8 °F 29.95 in Calm   1.0 mph 96% 0.00 in BKN
21:45 62.9 °F 61.7 °F 29.95 in Calm   2.0 mph 96% 0.00 in BKN
22:00 62.9 °F 61.7 °F 29.95 in Calm   1.0 mph 96% 0.00 in BKN
22:16 62.9 °F 61.8 °F 29.94 in Calm   1.0 mph 96% 0.00 in BKN
22:30 63.0 °F 61.8 °F 29.94 in Calm   1.0 mph 96% 0.00 in BKN
22:45 63.0 °F 61.8 °F 29.94 in Calm   1.0 mph 96% 0.00 in BKN
23:00 63.0 °F 62.1 °F 29.94 in Calm   1.0 mph 97% 0.00 in BKN
23:15 63.0 °F 62.2 °F 29.95 in Calm   1.0 mph 97% 0.00 in CLR
23:30 63.1 °F 62.2 °F 29.96 in Calm   1.0 mph 97% 0.00 in CLR
23:45 63.1 °F 62.2 °F 29.96 in Calm   1.0 mph 97% 0.00 in CLR
TarryTown NY Weather
Compliments of Weather Underground - 1.5 mb